sensor_id;sensor_type;location;lat;lon;timestamp;P1;durP1;ratioP1;P2;durP2;ratioP2
29570;SDS011;16814;52.118;11.436;2023-06-22T00:01:47;12.55;;;9.57;;
29570;SDS011;16814;52.118;11.436;2023-06-22T00:04:17;13.30;;;10.70;;
29570;SDS011;16814;52.118;11.436;2023-06-22T00:06:44;14.73;;;11.18;;
29570;SDS011;16814;52.118;11.436;2023-06-22T00:09:12;18.13;;;11.88;;
29570;SDS011;16814;52.118;11.436;2023-06-22T00:11:49;13.23;;;11.20;;
29570;SDS011;16814;52.118;11.436;2023-06-22T00:14:14;14.93;;;11.37;;
29570;SDS011;16814;52.118;11.436;2023-06-22T00:16:41;14.35;;;10.88;;
29570;SDS011;16814;52.118;11.436;2023-06-22T00:19:09;13.35;;;10.18;;
29570;SDS011;16814;52.118;11.436;2023-06-22T00:21:38;13.30;;;10.57;;
29570;SDS011;16814;52.118;11.436;2023-06-22T00:24:05;13.70;;;10.55;;
29570;SDS011;16814;52.118;11.436;2023-06-22T00:26:31;14.80;;;11.05;;
29570;SDS011;16814;52.118;11.436;2023-06-22T00:28:59;13.68;;;10.82;;
29570;SDS011;16814;52.118;11.436;2023-06-22T00:31:27;20.20;;;11.57;;
29570;SDS011;16814;52.118;11.436;2023-06-22T00:33:54;16.80;;;10.48;;
29570;SDS011;16814;52.118;11.436;2023-06-22T00:36:21;14.65;;;11.02;;
29570;SDS011;16814;52.118;11.436;2023-06-22T00:38:49;17.42;;;11.95;;
29570;SDS011;16814;52.118;11.436;2023-06-22T00:41:17;13.75;;;10.30;;
29570;SDS011;16814;52.118;11.436;2023-06-22T00:43:44;13.57;;;10.20;;
29570;SDS011;16814;52.118;11.436;2023-06-22T00:46:14;12.75;;;10.15;;
29570;SDS011;16814;52.118;11.436;2023-06-22T00:48:41;13.35;;;10.20;;
29570;SDS011;16814;52.118;11.436;2023-06-22T00:51:10;16.98;;;11.40;;
29570;SDS011;16814;52.118;11.436;2023-06-22T00:53:39;18.80;;;11.20;;
29570;SDS011;16814;52.118;11.436;2023-06-22T00:56:07;14.77;;;11.38;;
29570;SDS011;16814;52.118;11.436;2023-06-22T00:58:36;14.57;;;11.05;;
29570;SDS011;16814;52.118;11.436;2023-06-22T01:01:02;14.05;;;10.02;;
29570;SDS011;16814;52.118;11.436;2023-06-22T01:03:28;13.50;;;9.97;;
29570;SDS011;16814;52.118;11.436;2023-06-22T01:06:04;12.40;;;9.43;;
29570;SDS011;16814;52.118;11.436;2023-06-22T01:08:42;14.55;;;11.02;;
29570;SDS011;16814;52.118;11.436;2023-06-22T01:11:57;18.30;;;11.50;;
29570;SDS011;16814;52.118;11.436;2023-06-22T01:14:45;14.00;;;10.05;;
29570;SDS011;16814;52.118;11.436;2023-06-22T01:17:20;13.13;;;9.73;;
29570;SDS011;16814;52.118;11.436;2023-06-22T01:19:49;15.35;;;9.95;;
29570;SDS011;16814;52.118;11.436;2023-06-22T01:22:24;14.98;;;11.70;;
29570;SDS011;16814;52.118;11.436;2023-06-22T01:25:15;16.63;;;10.35;;
29570;SDS011;16814;52.118;11.436;2023-06-22T01:30:48;19.42;;;12.07;;
29570;SDS011;16814;52.118;11.436;2023-06-22T01:33:37;16.38;;;12.30;;
29570;SDS011;16814;52.118;11.436;2023-06-22T01:36:06;15.73;;;11.37;;
29570;SDS011;16814;52.118;11.436;2023-06-22T01:38:41;18.67;;;12.10;;
29570;SDS011;16814;52.118;11.436;2023-06-22T01:41:09;19.35;;;12.07;;
29570;SDS011;16814;52.118;11.436;2023-06-22T01:43:38;16.35;;;12.23;;
29570;SDS011;16814;52.118;11.436;2023-06-22T01:46:10;22.67;;;13.32;;
29570;SDS011;16814;52.118;11.436;2023-06-22T01:48:38;17.15;;;12.85;;
29570;SDS011;16814;52.118;11.436;2023-06-22T01:51:05;20.35;;;13.30;;
29570;SDS011;16814;52.118;11.436;2023-06-22T01:53:34;15.35;;;12.05;;
29570;SDS011;16814;52.118;11.436;2023-06-22T01:56:03;21.58;;;11.82;;
29570;SDS011;16814;52.118;11.436;2023-06-22T01:58:31;16.17;;;11.53;;
29570;SDS011;16814;52.118;11.436;2023-06-22T02:01:13;18.35;;;12.98;;
29570;SDS011;16814;52.118;11.436;2023-06-22T02:06:42;17.83;;;11.73;;
29570;SDS011;16814;52.118;11.436;2023-06-22T02:09:12;16.38;;;12.05;;
29570;SDS011;16814;52.118;11.436;2023-06-22T02:11:42;18.77;;;13.40;;
29570;SDS011;16814;52.118;11.436;2023-06-22T02:14:17;18.70;;;13.67;;
29570;SDS011;16814;52.118;11.436;2023-06-22T02:16:50;19.75;;;13.00;;
29570;SDS011;16814;52.118;11.436;2023-06-22T02:19:26;15.95;;;11.45;;
29570;SDS011;16814;52.118;11.436;2023-06-22T02:22:00;17.93;;;13.50;;
29570;SDS011;16814;52.118;11.436;2023-06-22T02:24:35;19.08;;;13.43;;
29570;SDS011;16814;52.118;11.436;2023-06-22T02:27:03;20.63;;;12.70;;
29570;SDS011;16814;52.118;11.436;2023-06-22T02:29:36;21.02;;;13.18;;
29570;SDS011;16814;52.118;11.436;2023-06-22T02:32:04;18.33;;;13.10;;
29570;SDS011;16814;52.118;11.436;2023-06-22T02:34:34;23.88;;;12.82;;
29570;SDS011;16814;52.118;11.436;2023-06-22T02:37:01;26.33;;;13.68;;
29570;SDS011;16814;52.118;11.436;2023-06-22T02:39:31;18.05;;;12.27;;
29570;SDS011;16814;52.118;11.436;2023-06-22T02:41:59;19.63;;;12.85;;
29570;SDS011;16814;52.118;11.436;2023-06-22T02:44:26;18.95;;;12.82;;
29570;SDS011;16814;52.118;11.436;2023-06-22T02:46:52;18.30;;;11.90;;
29570;SDS011;16814;52.118;11.436;2023-06-22T02:49:21;17.50;;;12.63;;
29570;SDS011;16814;52.118;11.436;2023-06-22T02:51:48;15.55;;;11.55;;
29570;SDS011;16814;52.118;11.436;2023-06-22T02:54:16;16.73;;;12.05;;
29570;SDS011;16814;52.118;11.436;2023-06-22T02:56:53;14.88;;;11.65;;
29570;SDS011;16814;52.118;11.436;2023-06-22T02:59:19;21.05;;;11.65;;
29570;SDS011;16814;52.118;11.436;2023-06-22T03:01:52;22.00;;;11.95;;
29570;SDS011;16814;52.118;11.436;2023-06-22T03:04:20;17.05;;;11.85;;
29570;SDS011;16814;52.118;11.436;2023-06-22T03:06:46;17.05;;;11.50;;
29570;SDS011;16814;52.118;11.436;2023-06-22T03:09:16;17.65;;;11.75;;
29570;SDS011;16814;52.118;11.436;2023-06-22T03:11:45;16.40;;;11.30;;
29570;SDS011;16814;52.118;11.436;2023-06-22T03:14:12;21.93;;;11.57;;
29570;SDS011;16814;52.118;11.436;2023-06-22T03:16:39;14.38;;;10.35;;
29570;SDS011;16814;52.118;11.436;2023-06-22T03:19:06;17.13;;;11.40;;
29570;SDS011;16814;52.118;11.436;2023-06-22T03:21:33;14.80;;;11.40;;
29570;SDS011;16814;52.118;11.436;2023-06-22T03:24:09;16.85;;;11.57;;
29570;SDS011;16814;52.118;11.436;2023-06-22T03:26:37;14.90;;;10.73;;
29570;SDS011;16814;52.118;11.436;2023-06-22T03:29:05;20.52;;;12.25;;
29570;SDS011;16814;52.118;11.436;2023-06-22T03:31:32;14.30;;;10.87;;
29570;SDS011;16814;52.118;11.436;2023-06-22T03:33:59;19.00;;;11.13;;
29570;SDS011;16814;52.118;11.436;2023-06-22T03:36:24;17.07;;;11.50;;
29570;SDS011;16814;52.118;11.436;2023-06-22T03:38:51;16.70;;;10.63;;
29570;SDS011;16814;52.118;11.436;2023-06-22T03:41:18;17.27;;;11.10;;
29570;SDS011;16814;52.118;11.436;2023-06-22T03:43:45;17.13;;;11.30;;
29570;SDS011;16814;52.118;11.436;2023-06-22T03:46:12;16.42;;;11.60;;
29570;SDS011;16814;52.118;11.436;2023-06-22T03:48:41;18.35;;;12.32;;
29570;SDS011;16814;52.118;11.436;2023-06-22T03:51:07;17.88;;;11.30;;
29570;SDS011;16814;52.118;11.436;2023-06-22T03:53:35;15.45;;;11.52;;
29570;SDS011;16814;52.118;11.436;2023-06-22T03:56:00;16.77;;;11.20;;
29570;SDS011;16814;52.118;11.436;2023-06-22T03:58:27;16.13;;;12.47;;
29570;SDS011;16814;52.118;11.436;2023-06-22T04:00:59;21.30;;;12.80;;
29570;SDS011;16814;52.118;11.436;2023-06-22T04:03:27;19.33;;;12.25;;
29570;SDS011;16814;52.118;11.436;2023-06-22T04:05:52;14.70;;;10.93;;
29570;SDS011;16814;52.118;11.436;2023-06-22T04:08:19;23.10;;;13.55;;
29570;SDS011;16814;52.118;11.436;2023-06-22T04:10:46;17.23;;;12.70;;
29570;SDS011;16814;52.118;11.436;2023-06-22T04:13:16;17.80;;;13.07;;
29570;SDS011;16814;52.118;11.436;2023-06-22T04:15:43;20.43;;;13.10;;
29570;SDS011;16814;52.118;11.436;2023-06-22T04:18:09;20.90;;;13.75;;
29570;SDS011;16814;52.118;11.436;2023-06-22T04:20:37;21.45;;;13.80;;
29570;SDS011;16814;52.118;11.436;2023-06-22T04:23:05;19.35;;;12.27;;
29570;SDS011;16814;52.118;11.436;2023-06-22T04:25:30;22.20;;;13.07;;
29570;SDS011;16814;52.118;11.436;2023-06-22T04:27:56;19.63;;;13.03;;
29570;SDS011;16814;52.118;11.436;2023-06-22T04:30:22;21.05;;;12.75;;
29570;SDS011;16814;52.118;11.436;2023-06-22T04:32:50;20.30;;;13.43;;
29570;SDS011;16814;52.118;11.436;2023-06-22T04:35:25;17.17;;;11.90;;
29570;SDS011;16814;52.118;11.436;2023-06-22T04:37:52;15.90;;;12.20;;
29570;SDS011;16814;52.118;11.436;2023-06-22T04:40:21;19.15;;;12.55;;
29570;SDS011;16814;52.118;11.436;2023-06-22T04:42:48;25.23;;;12.65;;
29570;SDS011;16814;52.118;11.436;2023-06-22T04:45:21;20.15;;;13.45;;
29570;SDS011;16814;52.118;11.436;2023-06-22T04:47:47;16.48;;;13.30;;
29570;SDS011;16814;52.118;11.436;2023-06-22T04:50:16;17.40;;;13.35;;
29570;SDS011;16814;52.118;11.436;2023-06-22T04:52:47;18.52;;;12.52;;
29570;SDS011;16814;52.118;11.436;2023-06-22T04:55:17;16.73;;;12.55;;
29570;SDS011;16814;52.118;11.436;2023-06-22T04:57:53;17.70;;;12.98;;
29570;SDS011;16814;52.118;11.436;2023-06-22T05:00:21;17.33;;;12.27;;
29570;SDS011;16814;52.118;11.436;2023-06-22T05:02:49;17.77;;;12.20;;
29570;SDS011;16814;52.118;11.436;2023-06-22T05:05:16;24.48;;;13.93;;
29570;SDS011;16814;52.118;11.436;2023-06-22T05:07:46;21.37;;;13.30;;
29570;SDS011;16814;52.118;11.436;2023-06-22T05:10:23;16.60;;;13.20;;
29570;SDS011;16814;52.118;11.436;2023-06-22T05:12:49;18.27;;;12.85;;
29570;SDS011;16814;52.118;11.436;2023-06-22T05:15:16;14.82;;;11.63;;
29570;SDS011;16814;52.118;11.436;2023-06-22T05:17:45;22.85;;;13.48;;
29570;SDS011;16814;52.118;11.436;2023-06-22T05:20:12;16.67;;;12.02;;
29570;SDS011;16814;52.118;11.436;2023-06-22T05:22:46;19.80;;;13.00;;
29570;SDS011;16814;52.118;11.436;2023-06-22T05:25:12;18.83;;;12.50;;
29570;SDS011;16814;52.118;11.436;2023-06-22T05:27:39;18.38;;;13.75;;
29570;SDS011;16814;52.118;11.436;2023-06-22T05:30:08;20.00;;;13.48;;
29570;SDS011;16814;52.118;11.436;2023-06-22T05:32:38;19.05;;;13.50;;
29570;SDS011;16814;52.118;11.436;2023-06-22T05:35:03;21.80;;;13.03;;
29570;SDS011;16814;52.118;11.436;2023-06-22T05:37:31;18.63;;;12.60;;
29570;SDS011;16814;52.118;11.436;2023-06-22T05:39:56;17.70;;;12.27;;
29570;SDS011;16814;52.118;11.436;2023-06-22T05:42:24;19.00;;;12.77;;
29570;SDS011;16814;52.118;11.436;2023-06-22T05:44:52;18.85;;;12.70;;
29570;SDS011;16814;52.118;11.436;2023-06-22T05:47:19;17.73;;;12.70;;
29570;SDS011;16814;52.118;11.436;2023-06-22T05:49:45;18.57;;;12.53;;
29570;SDS011;16814;52.118;11.436;2023-06-22T05:52:14;24.40;;;12.68;;
29570;SDS011;16814;52.118;11.436;2023-06-22T05:54:43;20.45;;;13.45;;
29570;SDS011;16814;52.118;11.436;2023-06-22T05:57:10;17.83;;;12.20;;
29570;SDS011;16814;52.118;11.436;2023-06-22T05:59:37;21.75;;;13.00;;
29570;SDS011;16814;52.118;11.436;2023-06-22T06:02:04;20.65;;;13.70;;
29570;SDS011;16814;52.118;11.436;2023-06-22T06:04:30;17.08;;;13.15;;
29570;SDS011;16814;52.118;11.436;2023-06-22T06:06:59;17.80;;;13.35;;
29570;SDS011;16814;52.118;11.436;2023-06-22T06:09:27;20.45;;;13.85;;
29570;SDS011;16814;52.118;11.436;2023-06-22T06:11:53;19.83;;;13.90;;
29570;SDS011;16814;52.118;11.436;2023-06-22T06:14:21;19.00;;;13.00;;
29570;SDS011;16814;52.118;11.436;2023-06-22T06:16:48;20.42;;;13.43;;
29570;SDS011;16814;52.118;11.436;2023-06-22T06:19:14;20.35;;;13.93;;
29570;SDS011;16814;52.118;11.436;2023-06-22T06:21:41;18.05;;;13.10;;
29570;SDS011;16814;52.118;11.436;2023-06-22T06:24:09;19.92;;;13.45;;
29570;SDS011;16814;52.118;11.436;2023-06-22T06:26:35;18.52;;;12.35;;
29570;SDS011;16814;52.118;11.436;2023-06-22T06:29:02;18.25;;;12.10;;
29570;SDS011;16814;52.118;11.436;2023-06-22T06:31:30;18.60;;;13.10;;
29570;SDS011;16814;52.118;11.436;2023-06-22T06:33:58;20.52;;;13.02;;
29570;SDS011;16814;52.118;11.436;2023-06-22T06:36:25;20.25;;;12.25;;
29570;SDS011;16814;52.118;11.436;2023-06-22T06:38:53;18.38;;;12.70;;
29570;SDS011;16814;52.118;11.436;2023-06-22T06:41:19;18.83;;;11.83;;
29570;SDS011;16814;52.118;11.436;2023-06-22T06:43:47;18.80;;;12.38;;
29570;SDS011;16814;52.118;11.436;2023-06-22T06:46:17;19.10;;;12.88;;
29570;SDS011;16814;52.118;11.436;2023-06-22T06:48:46;17.98;;;12.10;;
29570;SDS011;16814;52.118;11.436;2023-06-22T06:51:13;17.92;;;12.32;;
29570;SDS011;16814;52.118;11.436;2023-06-22T06:53:39;17.70;;;12.85;;
29570;SDS011;16814;52.118;11.436;2023-06-22T06:56:05;20.23;;;13.30;;
29570;SDS011;16814;52.118;11.436;2023-06-22T06:58:31;18.27;;;12.52;;
29570;SDS011;16814;52.118;11.436;2023-06-22T07:01:00;19.00;;;12.68;;
29570;SDS011;16814;52.118;11.436;2023-06-22T07:03:28;17.77;;;12.50;;
29570;SDS011;16814;52.118;11.436;2023-06-22T07:05:56;27.80;;;13.60;;
29570;SDS011;16814;52.118;11.436;2023-06-22T07:08:22;23.50;;;13.95;;
29570;SDS011;16814;52.118;11.436;2023-06-22T07:10:49;29.55;;;19.88;;
29570;SDS011;16814;52.118;11.436;2023-06-22T07:13:16;20.63;;;13.20;;
29570;SDS011;16814;52.118;11.436;2023-06-22T07:15:42;21.15;;;13.63;;
29570;SDS011;16814;52.118;11.436;2023-06-22T07:18:08;23.60;;;13.50;;
29570;SDS011;16814;52.118;11.436;2023-06-22T07:20:36;18.73;;;13.52;;
29570;SDS011;16814;52.118;11.436;2023-06-22T07:23:02;17.90;;;12.80;;
29570;SDS011;16814;52.118;11.436;2023-06-22T07:25:30;20.25;;;12.55;;
29570;SDS011;16814;52.118;11.436;2023-06-22T07:28:02;16.50;;;11.87;;
29570;SDS011;16814;52.118;11.436;2023-06-22T07:30:34;15.65;;;12.52;;
29570;SDS011;16814;52.118;11.436;2023-06-22T07:33:01;15.43;;;11.98;;
29570;SDS011;16814;52.118;11.436;2023-06-22T07:35:31;20.48;;;12.70;;
29570;SDS011;16814;52.118;11.436;2023-06-22T07:37:58;15.52;;;12.18;;
29570;SDS011;16814;52.118;11.436;2023-06-22T07:40:25;17.27;;;12.73;;
29570;SDS011;16814;52.118;11.436;2023-06-22T07:42:52;19.98;;;12.45;;
29570;SDS011;16814;52.118;11.436;2023-06-22T07:45:19;14.65;;;12.05;;
29570;SDS011;16814;52.118;11.436;2023-06-22T07:47:46;17.42;;;12.60;;
29570;SDS011;16814;52.118;11.436;2023-06-22T07:50:28;14.48;;;12.32;;
29570;SDS011;16814;52.118;11.436;2023-06-22T07:52:57;17.67;;;11.80;;
29570;SDS011;16814;52.118;11.436;2023-06-22T07:55:23;15.73;;;12.02;;
29570;SDS011;16814;52.118;11.436;2023-06-22T07:57:50;14.55;;;11.20;;
29570;SDS011;16814;52.118;11.436;2023-06-22T08:00:18;17.90;;;11.27;;
29570;SDS011;16814;52.118;11.436;2023-06-22T08:02:45;15.75;;;10.85;;
29570;SDS011;16814;52.118;11.436;2023-06-22T08:05:13;17.07;;;10.70;;
29570;SDS011;16814;52.118;11.436;2023-06-22T08:07:42;13.75;;;10.63;;
29570;SDS011;16814;52.118;11.436;2023-06-22T08:10:12;14.52;;;10.05;;
29570;SDS011;16814;52.118;11.436;2023-06-22T08:12:39;15.52;;;11.20;;
29570;SDS011;16814;52.118;11.436;2023-06-22T08:15:10;14.90;;;10.80;;
29570;SDS011;16814;52.118;11.436;2023-06-22T08:17:39;13.30;;;10.25;;
29570;SDS011;16814;52.118;11.436;2023-06-22T08:20:11;15.80;;;10.88;;
29570;SDS011;16814;52.118;11.436;2023-06-22T08:22:38;13.67;;;10.90;;
29570;SDS011;16814;52.118;11.436;2023-06-22T08:25:06;14.13;;;10.60;;
29570;SDS011;16814;52.118;11.436;2023-06-22T08:27:34;15.50;;;10.57;;
29570;SDS011;16814;52.118;11.436;2023-06-22T08:30:03;14.40;;;10.75;;
29570;SDS011;16814;52.118;11.436;2023-06-22T08:32:33;16.13;;;10.85;;
29570;SDS011;16814;52.118;11.436;2023-06-22T08:35:03;14.00;;;10.65;;
29570;SDS011;16814;52.118;11.436;2023-06-22T08:37:32;14.97;;;11.10;;
29570;SDS011;16814;52.118;11.436;2023-06-22T08:40:02;12.55;;;10.60;;
29570;SDS011;16814;52.118;11.436;2023-06-22T08:42:36;13.50;;;11.23;;
29570;SDS011;16814;52.118;11.436;2023-06-22T08:45:05;15.13;;;11.10;;
29570;SDS011;16814;52.118;11.436;2023-06-22T08:47:35;18.83;;;11.32;;
29570;SDS011;16814;52.118;11.436;2023-06-22T08:50:11;14.65;;;10.50;;
29570;SDS011;16814;52.118;11.436;2023-06-22T08:52:41;17.23;;;11.55;;
29570;SDS011;16814;52.118;11.436;2023-06-22T08:55:10;16.92;;;11.57;;
29570;SDS011;16814;52.118;11.436;2023-06-22T08:57:37;14.88;;;11.48;;
29570;SDS011;16814;52.118;11.436;2023-06-22T09:00:06;16.38;;;11.70;;
29570;SDS011;16814;52.118;11.436;2023-06-22T09:02:43;14.68;;;11.55;;
29570;SDS011;16814;52.118;11.436;2023-06-22T09:05:11;19.02;;;11.35;;
29570;SDS011;16814;52.118;11.436;2023-06-22T09:07:44;17.50;;;11.77;;
29570;SDS011;16814;52.118;11.436;2023-06-22T09:10:11;16.67;;;11.52;;
29570;SDS011;16814;52.118;11.436;2023-06-22T09:12:39;15.67;;;11.80;;
29570;SDS011;16814;52.118;11.436;2023-06-22T09:15:09;17.30;;;12.13;;
29570;SDS011;16814;52.118;11.436;2023-06-22T09:17:35;15.75;;;12.68;;
29570;SDS011;16814;52.118;11.436;2023-06-22T09:20:03;16.23;;;12.37;;
29570;SDS011;16814;52.118;11.436;2023-06-22T09:22:35;15.60;;;12.20;;
29570;SDS011;16814;52.118;11.436;2023-06-22T09:25:02;15.80;;;11.88;;
29570;SDS011;16814;52.118;11.436;2023-06-22T09:27:33;18.10;;;12.90;;
29570;SDS011;16814;52.118;11.436;2023-06-22T09:30:03;17.23;;;12.25;;
29570;SDS011;16814;52.118;11.436;2023-06-22T09:32:32;16.50;;;12.45;;
29570;SDS011;16814;52.118;11.436;2023-06-22T09:35:03;16.45;;;12.05;;
29570;SDS011;16814;52.118;11.436;2023-06-22T09:37:32;14.57;;;12.15;;
29570;SDS011;16814;52.118;11.436;2023-06-22T09:39:58;14.73;;;11.73;;
29570;SDS011;16814;52.118;11.436;2023-06-22T09:42:25;17.40;;;11.90;;
29570;SDS011;16814;52.118;11.436;2023-06-22T09:44:59;16.37;;;12.53;;
29570;SDS011;16814;52.118;11.436;2023-06-22T09:47:28;15.80;;;12.20;;
29570;SDS011;16814;52.118;11.436;2023-06-22T09:49:55;16.17;;;11.98;;
29570;SDS011;16814;52.118;11.436;2023-06-22T09:52:25;14.20;;;11.75;;
29570;SDS011;16814;52.118;11.436;2023-06-22T09:55:02;18.33;;;12.52;;
29570;SDS011;16814;52.118;11.436;2023-06-22T09:57:30;14.45;;;11.50;;
29570;SDS011;16814;52.118;11.436;2023-06-22T09:59:58;14.43;;;10.30;;
29570;SDS011;16814;52.118;11.436;2023-06-22T10:02:25;15.47;;;11.17;;
29570;SDS011;16814;52.118;11.436;2023-06-22T10:04:51;15.53;;;12.17;;
29570;SDS011;16814;52.118;11.436;2023-06-22T10:07:17;15.30;;;11.17;;
29570;SDS011;16814;52.118;11.436;2023-06-22T10:09:46;17.92;;;12.02;;
29570;SDS011;16814;52.118;11.436;2023-06-22T10:12:13;14.45;;;11.90;;
29570;SDS011;16814;52.118;11.436;2023-06-22T10:14:41;14.98;;;11.48;;
29570;SDS011;16814;52.118;11.436;2023-06-22T10:17:06;18.48;;;11.55;;
29570;SDS011;16814;52.118;11.436;2023-06-22T10:19:32;15.53;;;11.07;;
29570;SDS011;16814;52.118;11.436;2023-06-22T10:22:09;14.30;;;10.50;;
29570;SDS011;16814;52.118;11.436;2023-06-22T10:24:37;14.85;;;11.30;;
29570;SDS011;16814;52.118;11.436;2023-06-22T10:27:11;14.30;;;11.05;;
29570;SDS011;16814;52.118;11.436;2023-06-22T10:29:37;14.05;;;10.57;;
29570;SDS011;16814;52.118;11.436;2023-06-22T10:32:05;16.23;;;10.73;;
29570;SDS011;16814;52.118;11.436;2023-06-22T10:34:32;14.90;;;11.15;;
29570;SDS011;16814;52.118;11.436;2023-06-22T10:36:59;16.13;;;10.90;;
29570;SDS011;16814;52.118;11.436;2023-06-22T10:39:27;15.87;;;11.20;;
29570;SDS011;16814;52.118;11.436;2023-06-22T10:41:55;13.07;;;10.45;;
29570;SDS011;16814;52.118;11.436;2023-06-22T10:44:22;14.07;;;10.50;;
29570;SDS011;16814;52.118;11.436;2023-06-22T10:46:51;13.10;;;11.52;;
29570;SDS011;16814;52.118;11.436;2023-06-22T10:49:18;15.20;;;11.18;;
29570;SDS011;16814;52.118;11.436;2023-06-22T10:51:44;13.88;;;10.63;;
29570;SDS011;16814;52.118;11.436;2023-06-22T10:54:11;13.43;;;10.82;;
29570;SDS011;16814;52.118;11.436;2023-06-22T10:56:39;14.80;;;10.43;;
29570;SDS011;16814;52.118;11.436;2023-06-22T10:59:07;16.07;;;11.33;;
29570;SDS011;16814;52.118;11.436;2023-06-22T11:01:35;15.60;;;11.00;;
29570;SDS011;16814;52.118;11.436;2023-06-22T11:04:02;14.70;;;10.50;;
29570;SDS011;16814;52.118;11.436;2023-06-22T11:06:28;15.13;;;10.67;;
29570;SDS011;16814;52.118;11.436;2023-06-22T11:08:56;11.52;;;9.95;;
29570;SDS011;16814;52.118;11.436;2023-06-22T11:11:25;12.48;;;10.65;;
29570;SDS011;16814;52.118;11.436;2023-06-22T11:13:52;13.00;;;10.70;;
29570;SDS011;16814;52.118;11.436;2023-06-22T11:16:23;13.27;;;10.50;;
29570;SDS011;16814;52.118;11.436;2023-06-22T11:18:51;13.98;;;10.50;;
29570;SDS011;16814;52.118;11.436;2023-06-22T11:21:18;14.82;;;11.30;;
29570;SDS011;16814;52.118;11.436;2023-06-22T11:23:45;14.30;;;11.02;;
29570;SDS011;16814;52.118;11.436;2023-06-22T11:26:11;14.77;;;11.52;;
29570;SDS011;16814;52.118;11.436;2023-06-22T11:28:38;14.90;;;11.10;;
29570;SDS011;16814;52.118;11.436;2023-06-22T11:31:06;15.10;;;10.80;;
29570;SDS011;16814;52.118;11.436;2023-06-22T11:33:43;13.07;;;10.07;;
29570;SDS011;16814;52.118;11.436;2023-06-22T11:36:11;13.57;;;10.68;;
29570;SDS011;16814;52.118;11.436;2023-06-22T11:38:42;13.67;;;9.83;;
29570;SDS011;16814;52.118;11.436;2023-06-22T11:41:11;13.10;;;10.32;;
29570;SDS011;16814;52.118;11.436;2023-06-22T11:43:39;14.77;;;10.13;;
29570;SDS011;16814;52.118;11.436;2023-06-22T11:46:06;14.18;;;9.50;;
29570;SDS011;16814;52.118;11.436;2023-06-22T11:48:37;16.30;;;11.38;;
29570;SDS011;16814;52.118;11.436;2023-06-22T11:51:04;13.52;;;10.20;;
29570;SDS011;16814;52.118;11.436;2023-06-22T11:53:33;12.82;;;10.23;;
29570;SDS011;16814;52.118;11.436;2023-06-22T11:56:01;13.75;;;10.20;;
29570;SDS011;16814;52.118;11.436;2023-06-22T11:58:26;13.37;;;9.43;;
29570;SDS011;16814;52.118;11.436;2023-06-22T12:01:00;14.73;;;9.48;;
29570;SDS011;16814;52.118;11.436;2023-06-22T12:03:26;14.30;;;10.25;;
29570;SDS011;16814;52.118;11.436;2023-06-22T12:06:03;12.70;;;11.00;;
29570;SDS011;16814;52.118;11.436;2023-06-22T12:08:32;14.90;;;10.73;;
29570;SDS011;16814;52.118;11.436;2023-06-22T12:10:58;15.15;;;11.32;;
29570;SDS011;16814;52.118;11.436;2023-06-22T12:13:25;14.27;;;11.60;;
29570;SDS011;16814;52.118;11.436;2023-06-22T12:15:52;23.83;;;13.13;;
29570;SDS011;16814;52.118;11.436;2023-06-22T12:18:20;14.48;;;10.98;;
29570;SDS011;16814;52.118;11.436;2023-06-22T12:20:46;13.00;;;10.48;;
29570;SDS011;16814;52.118;11.436;2023-06-22T12:23:14;15.52;;;9.70;;
29570;SDS011;16814;52.118;11.436;2023-06-22T12:25:44;14.18;;;9.95;;
29570;SDS011;16814;52.118;11.436;2023-06-22T12:28:10;14.27;;;9.80;;
29570;SDS011;16814;52.118;11.436;2023-06-22T12:30:37;16.20;;;10.52;;
29570;SDS011;16814;52.118;11.436;2023-06-22T12:33:05;31.88;;;14.43;;
29570;SDS011;16814;52.118;11.436;2023-06-22T12:35:32;16.60;;;11.32;;
29570;SDS011;16814;52.118;11.436;2023-06-22T12:37:59;16.30;;;12.13;;
29570;SDS011;16814;52.118;11.436;2023-06-22T12:40:27;19.00;;;10.87;;
29570;SDS011;16814;52.118;11.436;2023-06-22T12:43:03;13.98;;;10.55;;
29570;SDS011;16814;52.118;11.436;2023-06-22T12:45:31;13.47;;;11.13;;
29570;SDS011;16814;52.118;11.436;2023-06-22T12:47:58;15.50;;;11.57;;
29570;SDS011;16814;52.118;11.436;2023-06-22T12:50:27;15.30;;;10.80;;
29570;SDS011;16814;52.118;11.436;2023-06-22T12:52:56;13.40;;;10.27;;
29570;SDS011;16814;52.118;11.436;2023-06-22T12:55:22;18.83;;;10.87;;
29570;SDS011;16814;52.118;11.436;2023-06-22T12:57:49;14.27;;;11.13;;
29570;SDS011;16814;52.118;11.436;2023-06-22T13:00:17;17.55;;;10.45;;
29570;SDS011;16814;52.118;11.436;2023-06-22T13:02:45;19.92;;;12.18;;
29570;SDS011;16814;52.118;11.436;2023-06-22T13:05:12;14.73;;;11.27;;
29570;SDS011;16814;52.118;11.436;2023-06-22T13:07:39;13.90;;;11.00;;
29570;SDS011;16814;52.118;11.436;2023-06-22T13:10:09;14.38;;;11.13;;
29570;SDS011;16814;52.118;11.436;2023-06-22T13:12:36;13.32;;;10.70;;
29570;SDS011;16814;52.118;11.436;2023-06-22T13:15:01;12.77;;;10.38;;
29570;SDS011;16814;52.118;11.436;2023-06-22T13:17:28;15.43;;;11.40;;
29570;SDS011;16814;52.118;11.436;2023-06-22T13:19:55;17.77;;;11.27;;
29570;SDS011;16814;52.118;11.436;2023-06-22T13:22:31;15.75;;;11.68;;
29570;SDS011;16814;52.118;11.436;2023-06-22T13:25:06;15.93;;;11.52;;
29570;SDS011;16814;52.118;11.436;2023-06-22T13:27:35;19.98;;;11.27;;
29570;SDS011;16814;52.118;11.436;2023-06-22T13:30:02;16.88;;;11.20;;
29570;SDS011;16814;52.118;11.436;2023-06-22T13:32:28;14.93;;;11.40;;
29570;SDS011;16814;52.118;11.436;2023-06-22T13:34:55;17.95;;;11.57;;
29570;SDS011;16814;52.118;11.436;2023-06-22T13:37:27;13.23;;;11.23;;
29570;SDS011;16814;52.118;11.436;2023-06-22T13:39:54;13.23;;;11.10;;
29570;SDS011;16814;52.118;11.436;2023-06-22T13:42:21;12.05;;;10.40;;
29570;SDS011;16814;52.118;11.436;2023-06-22T13:45:05;17.58;;;11.25;;
29570;SDS011;16814;52.118;11.436;2023-06-22T13:47:39;13.38;;;10.75;;
29570;SDS011;16814;52.118;11.436;2023-06-22T13:50:06;15.80;;;10.95;;
29570;SDS011;16814;52.118;11.436;2023-06-22T13:52:34;14.55;;;10.77;;
29570;SDS011;16814;52.118;11.436;2023-06-22T13:55:08;15.60;;;10.30;;
29570;SDS011;16814;52.118;11.436;2023-06-22T13:57:35;15.50;;;10.93;;
29570;SDS011;16814;52.118;11.436;2023-06-22T14:00:03;17.57;;;11.20;;
29570;SDS011;16814;52.118;11.436;2023-06-22T14:02:34;15.65;;;10.73;;
29570;SDS011;16814;52.118;11.436;2023-06-22T14:05:00;15.10;;;10.50;;
29570;SDS011;16814;52.118;11.436;2023-06-22T14:07:29;14.40;;;11.32;;
29570;SDS011;16814;52.118;11.436;2023-06-22T14:09:55;13.50;;;10.50;;
29570;SDS011;16814;52.118;11.436;2023-06-22T14:12:26;15.32;;;11.02;;
29570;SDS011;16814;52.118;11.436;2023-06-22T14:14:52;13.23;;;11.18;;
29570;SDS011;16814;52.118;11.436;2023-06-22T14:17:19;14.93;;;10.10;;
29570;SDS011;16814;52.118;11.436;2023-06-22T14:19:51;13.60;;;10.98;;
29570;SDS011;16814;52.118;11.436;2023-06-22T14:22:20;16.50;;;10.57;;
29570;SDS011;16814;52.118;11.436;2023-06-22T14:24:48;15.25;;;11.02;;